sensor_id;sensor_type;location;lat;lon;timestamp;temperature;humidity
45765;DHT22;31474;45.332;10.230;2023-07-13T00:01:49;23.40;99.90
45765;DHT22;31474;45.332;10.230;2023-07-13T00:04:19;23.30;99.90
45765;DHT22;31474;45.332;10.230;2023-07-13T00:06:47;23.20;99.90
45765;DHT22;31474;45.332;10.230;2023-07-13T00:09:14;23.10;99.90
45765;DHT22;31474;45.332;10.230;2023-07-13T00:11:40;23.10;99.90
45765;DHT22;31474;45.332;10.230;2023-07-13T00:14:07;23.20;99.90
45765;DHT22;31474;45.332;10.230;2023-07-13T00:16:34;23.30;99.90
45765;DHT22;31474;45.332;10.230;2023-07-13T00:19:00;23.30;99.90
45765;DHT22;31474;45.332;10.230;2023-07-13T00:21:26;23.30;99.90
45765;DHT22;31474;45.332;10.230;2023-07-13T00:23:52;23.30;99.90
45765;DHT22;31474;45.332;10.230;2023-07-13T00:26:18;23.10;99.90
45765;DHT22;31474;45.332;10.230;2023-07-13T00:28:43;22.90;99.90
45765;DHT22;31474;45.332;10.230;2023-07-13T00:31:11;22.90;99.90
45765;DHT22;31474;45.332;10.230;2023-07-13T00:33:37;22.80;99.90
45765;DHT22;31474;45.332;10.230;2023-07-13T00:36:03;22.70;99.90
45765;DHT22;31474;45.332;10.230;2023-07-13T00:38:29;22.80;99.90
45765;DHT22;31474;45.332;10.230;2023-07-13T00:40:55;22.90;99.90
45765;DHT22;31474;45.332;10.230;2023-07-13T00:43:23;23.00;99.90
45765;DHT22;31474;45.332;10.230;2023-07-13T00:48:18;23.10;99.90
45765;DHT22;31474;45.332;10.230;2023-07-13T00:50:48;23.10;99.90
45765;DHT22;31474;45.332;10.230;2023-07-13T00:53:15;23.30;99.90
45765;DHT22;31474;45.332;10.230;2023-07-13T00:55:41;23.30;99.90
45765;DHT22;31474;45.332;10.230;2023-07-13T00:58:07;23.30;99.90
45765;DHT22;31474;45.332;10.230;2023-07-13T01:00:35;23.40;99.90
45765;DHT22;31474;45.332;10.230;2023-07-13T01:03:03;23.50;99.90
45765;DHT22;31474;45.332;10.230;2023-07-13T01:05:31;23.50;99.90
45765;DHT22;31474;45.332;10.230;2023-07-13T01:07:57;23.50;99.90
45765;DHT22;31474;45.332;10.230;2023-07-13T01:10:25;23.60;99.90
45765;DHT22;31474;45.332;10.230;2023-07-13T01:12:51;23.50;99.90
45765;DHT22;31474;45.332;10.230;2023-07-13T01:15:37;23.60;99.90
45765;DHT22;31474;45.332;10.230;2023-07-13T01:18:08;23.50;99.90
45765;DHT22;31474;45.332;10.230;2023-07-13T01:20:34;23.60;99.90
45765;DHT22;31474;45.332;10.230;2023-07-13T01:23:05;23.70;99.90
45765;DHT22;31474;45.332;10.230;2023-07-13T01:25:32;23.70;99.90
45765;DHT22;31474;45.332;10.230;2023-07-13T01:27:57;23.60;99.90
45765;DHT22;31474;45.332;10.230;2023-07-13T01:30:23;23.60;99.90
45765;DHT22;31474;45.332;10.230;2023-07-13T01:32:49;23.60;99.90
45765;DHT22;31474;45.332;10.230;2023-07-13T01:35:16;23.70;99.90
45765;DHT22;31474;45.332;10.230;2023-07-13T01:37:42;23.70;99.90
45765;DHT22;31474;45.332;10.230;2023-07-13T01:40:10;23.70;99.90
45765;DHT22;31474;45.332;10.230;2023-07-13T01:42:37;23.60;99.90
45765;DHT22;31474;45.332;10.230;2023-07-13T01:45:03;23.60;99.90
45765;DHT22;31474;45.332;10.230;2023-07-13T01:47:29;23.60;99.90
45765;DHT22;31474;45.332;10.230;2023-07-13T01:49:56;23.60;99.90
45765;DHT22;31474;45.332;10.230;2023-07-13T01:52:22;23.50;99.90
45765;DHT22;31474;45.332;10.230;2023-07-13T01:54:47;23.50;99.90
45765;DHT22;31474;45.332;10.230;2023-07-13T01:57:13;23.50;99.90
45765;DHT22;31474;45.332;10.230;2023-07-13T01:59:39;23.50;99.90
45765;DHT22;31474;45.332;10.230;2023-07-13T02:02:05;23.50;99.90
45765;DHT22;31474;45.332;10.230;2023-07-13T02:04:30;23.50;99.90
45765;DHT22;31474;45.332;10.230;2023-07-13T02:06:56;23.40;99.90
45765;DHT22;31474;45.332;10.230;2023-07-13T02:09:21;23.40;99.90
45765;DHT22;31474;45.332;10.230;2023-07-13T02:11:47;23.50;99.90
45765;DHT22;31474;45.332;10.230;2023-07-13T02:14:14;23.50;99.90
45765;DHT22;31474;45.332;10.230;2023-07-13T02:16:41;23.50;99.90
45765;DHT22;31474;45.332;10.230;2023-07-13T02:19:07;23.50;99.90
45765;DHT22;31474;45.332;10.230;2023-07-13T02:21:33;23.50;99.90
45765;DHT22;31474;45.332;10.230;2023-07-13T02:23:59;23.40;99.90
45765;DHT22;31474;45.332;10.230;2023-07-13T02:26:26;23.40;99.90
45765;DHT22;31474;45.332;10.230;2023-07-13T02:28:52;23.40;99.90
45765;DHT22;31474;45.332;10.230;2023-07-13T02:31:18;23.40;99.90
45765;DHT22;31474;45.332;10.230;2023-07-13T02:33:43;23.40;99.90
45765;DHT22;31474;45.332;10.230;2023-07-13T02:36:09;23.30;99.90
45765;DHT22;31474;45.332;10.230;2023-07-13T02:38:35;23.30;99.90
45765;DHT22;31474;45.332;10.230;2023-07-13T02:41:03;23.30;99.90
45765;DHT22;31474;45.332;10.230;2023-07-13T02:43:29;23.40;99.90
45765;DHT22;31474;45.332;10.230;2023-07-13T02:45:55;23.40;99.90
45765;DHT22;31474;45.332;10.230;2023-07-13T02:48:21;23.40;99.90
45765;DHT22;31474;45.332;10.230;2023-07-13T02:50:46;23.40;99.90
45765;DHT22;31474;45.332;10.230;2023-07-13T02:53:12;23.40;99.90
45765;DHT22;31474;45.332;10.230;2023-07-13T02:55:37;23.50;99.90
45765;DHT22;31474;45.332;10.230;2023-07-13T02:58:04;23.50;99.90
45765;DHT22;31474;45.332;10.230;2023-07-13T03:00:29;23.50;99.90
45765;DHT22;31474;45.332;10.230;2023-07-13T03:02:56;23.50;99.90
45765;DHT22;31474;45.332;10.230;2023-07-13T03:05:23;23.60;99.90
45765;DHT22;31474;45.332;10.230;2023-07-13T03:07:49;23.60;99.90
45765;DHT22;31474;45.332;10.230;2023-07-13T03:10:15;23.50;99.90
45765;DHT22;31474;45.332;10.230;2023-07-13T03:12:42;23.60;99.90
45765;DHT22;31474;45.332;10.230;2023-07-13T03:15:07;23.60;99.90
45765;DHT22;31474;45.332;10.230;2023-07-13T03:17:33;23.70;99.90
45765;DHT22;31474;45.332;10.230;2023-07-13T03:19:58;23.60;99.90
45765;DHT22;31474;45.332;10.230;2023-07-13T03:22:24;23.60;99.90
45765;DHT22;31474;45.332;10.230;2023-07-13T03:24:50;23.60;99.90
45765;DHT22;31474;45.332;10.230;2023-07-13T03:27:17;23.50;99.90
45765;DHT22;31474;45.332;10.230;2023-07-13T03:29:43;23.60;99.90
45765;DHT22;31474;45.332;10.230;2023-07-13T03:32:09;23.50;99.90
45765;DHT22;31474;45.332;10.230;2023-07-13T03:34:35;23.50;99.90
45765;DHT22;31474;45.332;10.230;2023-07-13T03:37:00;23.50;99.90
45765;DHT22;31474;45.332;10.230;2023-07-13T03:39:26;23.50;99.90
45765;DHT22;31474;45.332;10.230;2023-07-13T03:41:52;23.50;99.90
45765;DHT22;31474;45.332;10.230;2023-07-13T03:44:18;23.50;99.90
45765;DHT22;31474;45.332;10.230;2023-07-13T03:46:45;23.50;99.90
45765;DHT22;31474;45.332;10.230;2023-07-13T03:49:10;23.50;99.90
45765;DHT22;31474;45.332;10.230;2023-07-13T03:51:36;23.40;99.90
45765;DHT22;31474;45.332;10.230;2023-07-13T03:54:02;23.50;99.90
45765;DHT22;31474;45.332;10.230;2023-07-13T03:56:29;23.50;99.90
45765;DHT22;31474;45.332;10.230;2023-07-13T03:58:55;23.50;99.90
45765;DHT22;31474;45.332;10.230;2023-07-13T04:01:23;23.40;99.90
45765;DHT22;31474;45.332;10.230;2023-07-13T04:03:49;23.30;99.90
45765;DHT22;31474;45.332;10.230;2023-07-13T04:06:22;23.40;99.90
45765;DHT22;31474;45.332;10.230;2023-07-13T04:08:55;23.40;99.90
45765;DHT22;31474;45.332;10.230;2023-07-13T04:11:22;23.40;99.90
45765;DHT22;31474;45.332;10.230;2023-07-13T04:13:49;23.40;99.90
45765;DHT22;31474;45.332;10.230;2023-07-13T04:16:16;23.40;99.90
45765;DHT22;31474;45.332;10.230;2023-07-13T04:18:41;23.20;99.90
45765;DHT22;31474;45.332;10.230;2023-07-13T04:21:08;23.10;99.90
45765;DHT22;31474;45.332;10.230;2023-07-13T04:23:37;23.10;99.90
45765;DHT22;31474;45.332;10.230;2023-07-13T04:26:04;23.10;99.90
45765;DHT22;31474;45.332;10.230;2023-07-13T04:28:30;23.00;99.90
45765;DHT22;31474;45.332;10.230;2023-07-13T04:30:56;23.00;99.90
45765;DHT22;31474;45.332;10.230;2023-07-13T04:33:22;23.10;99.90
45765;DHT22;31474;45.332;10.230;2023-07-13T04:35:49;23.20;99.90
45765;DHT22;31474;45.332;10.230;2023-07-13T04:38:15;23.20;99.90
45765;DHT22;31474;45.332;10.230;2023-07-13T04:40:51;23.30;99.90
45765;DHT22;31474;45.332;10.230;2023-07-13T04:43:17;23.20;99.90
45765;DHT22;31474;45.332;10.230;2023-07-13T04:45:43;23.30;99.90
45765;DHT22;31474;45.332;10.230;2023-07-13T04:48:09;23.40;99.90
45765;DHT22;31474;45.332;10.230;2023-07-13T04:50:37;23.30;99.90
45765;DHT22;31474;45.332;10.230;2023-07-13T04:53:03;23.20;99.90
45765;DHT22;31474;45.332;10.230;2023-07-13T04:55:29;23.20;99.90
45765;DHT22;31474;45.332;10.230;2023-07-13T04:57:56;23.30;99.90
45765;DHT22;31474;45.332;10.230;2023-07-13T05:00:21;23.20;99.90
45765;DHT22;31474;45.332;10.230;2023-07-13T05:02:47;23.10;99.90
45765;DHT22;31474;45.332;10.230;2023-07-13T05:05:13;22.90;99.90
45765;DHT22;31474;45.332;10.230;2023-07-13T05:07:39;22.90;99.90
45765;DHT22;31474;45.332;10.230;2023-07-13T05:10:05;22.90;99.90
45765;DHT22;31474;45.332;10.230;2023-07-13T05:12:31;23.20;99.90
45765;DHT22;31474;45.332;10.230;2023-07-13T05:14:56;23.30;99.90
45765;DHT22;31474;45.332;10.230;2023-07-13T05:17:22;23.40;99.90
45765;DHT22;31474;45.332;10.230;2023-07-13T05:19:48;23.40;99.90
45765;DHT22;31474;45.332;10.230;2023-07-13T05:22:13;23.50;99.90
45765;DHT22;31474;45.332;10.230;2023-07-13T05:24:39;23.60;99.90
45765;DHT22;31474;45.332;10.230;2023-07-13T05:27:05;23.70;99.90
45765;DHT22;31474;45.332;10.230;2023-07-13T05:29:30;23.80;99.90
45765;DHT22;31474;45.332;10.230;2023-07-13T05:31:56;24.00;99.90
45765;DHT22;31474;45.332;10.230;2023-07-13T05:34:22;24.00;99.90
45765;DHT22;31474;45.332;10.230;2023-07-13T05:36:48;24.10;99.90
45765;DHT22;31474;45.332;10.230;2023-07-13T05:39:14;24.20;99.90
45765;DHT22;31474;45.332;10.230;2023-07-13T05:41:40;24.20;99.90
45765;DHT22;31474;45.332;10.230;2023-07-13T05:44:05;24.20;99.90
45765;DHT22;31474;45.332;10.230;2023-07-13T05:46:31;24.20;99.90
45765;DHT22;31474;45.332;10.230;2023-07-13T05:48:57;24.30;99.90
45765;DHT22;31474;45.332;10.230;2023-07-13T05:51:22;24.30;99.90
45765;DHT22;31474;45.332;10.230;2023-07-13T05:53:48;24.30;99.90
45765;DHT22;31474;45.332;10.230;2023-07-13T05:56:14;24.30;99.90
45765;DHT22;31474;45.332;10.230;2023-07-13T05:58:39;24.30;99.90
45765;DHT22;31474;45.332;10.230;2023-07-13T06:01:09;24.40;99.90
45765;DHT22;31474;45.332;10.230;2023-07-13T06:03:35;24.30;99.90
45765;DHT22;31474;45.332;10.230;2023-07-13T06:06:01;24.30;99.90
45765;DHT22;31474;45.332;10.230;2023-07-13T06:08:27;24.30;99.90
45765;DHT22;31474;45.332;10.230;2023-07-13T06:10:53;24.20;99.90
45765;DHT22;31474;45.332;10.230;2023-07-13T06:13:19;24.20;99.90
45765;DHT22;31474;45.332;10.230;2023-07-13T06:15:49;24.00;99.90
45765;DHT22;31474;45.332;10.230;2023-07-13T06:18:15;24.00;99.90
45765;DHT22;31474;45.332;10.230;2023-07-13T06:20:40;24.00;99.90
45765;DHT22;31474;45.332;10.230;2023-07-13T06:23:06;24.00;99.90
45765;DHT22;31474;45.332;10.230;2023-07-13T06:25:32;24.00;99.90
45765;DHT22;31474;45.332;10.230;2023-07-13T06:27:57;24.10;99.90
45765;DHT22;31474;45.332;10.230;2023-07-13T06:30:23;24.10;99.90
45765;DHT22;31474;45.332;10.230;2023-07-13T06:32:49;24.20;99.90
45765;DHT22;31474;45.332;10.230;2023-07-13T06:35:15;24.20;99.90
45765;DHT22;31474;45.332;10.230;2023-07-13T06:37:41;24.20;99.90
45765;DHT22;31474;45.332;10.230;2023-07-13T06:40:07;24.20;99.90
45765;DHT22;31474;45.332;10.230;2023-07-13T06:42:33;24.20;99.90
45765;DHT22;31474;45.332;10.230;2023-07-13T06:44:58;24.30;99.90
45765;DHT22;31474;45.332;10.230;2023-07-13T06:47:24;24.20;99.90
45765;DHT22;31474;45.332;10.230;2023-07-13T06:49:50;24.20;99.90
45765;DHT22;31474;45.332;10.230;2023-07-13T06:52:15;24.30;99.90
45765;DHT22;31474;45.332;10.230;2023-07-13T06:54:41;24.30;99.90
45765;DHT22;31474;45.332;10.230;2023-07-13T06:57:07;24.30;99.90
45765;DHT22;31474;45.332;10.230;2023-07-13T06:59:32;24.40;99.90
45765;DHT22;31474;45.332;10.230;2023-07-13T07:01:58;24.40;99.90
45765;DHT22;31474;45.332;10.230;2023-07-13T07:04:24;24.30;99.90
45765;DHT22;31474;45.332;10.230;2023-07-13T07:06:49;24.30;99.90
45765;DHT22;31474;45.332;10.230;2023-07-13T07:09:15;24.40;99.90
45765;DHT22;31474;45.332;10.230;2023-07-13T07:11:42;24.30;99.90
45765;DHT22;31474;45.332;10.230;2023-07-13T07:14:08;24.40;99.90
45765;DHT22;31474;45.332;10.230;2023-07-13T07:16:33;24.40;99.90
45765;DHT22;31474;45.332;10.230;2023-07-13T07:18:59;24.50;99.90
45765;DHT22;31474;45.332;10.230;2023-07-13T07:21:25;24.60;99.90
45765;DHT22;31474;45.332;10.230;2023-07-13T07:23:52;24.60;99.90
45765;DHT22;31474;45.332;10.230;2023-07-13T07:26:18;24.60;99.90
45765;DHT22;31474;45.332;10.230;2023-07-13T07:28:44;24.60;99.90
45765;DHT22;31474;45.332;10.230;2023-07-13T07:31:09;24.60;99.90
45765;DHT22;31474;45.332;10.230;2023-07-13T07:33:35;24.60;99.90
45765;DHT22;31474;45.332;10.230;2023-07-13T07:36:01;24.60;99.90
45765;DHT22;31474;45.332;10.230;2023-07-13T07:38:27;24.50;99.90
45765;DHT22;31474;45.332;10.230;2023-07-13T07:40:53;24.50;99.90
45765;DHT22;31474;45.332;10.230;2023-07-13T07:43:19;24.40;99.90
45765;DHT22;31474;45.332;10.230;2023-07-13T07:45:45;24.20;99.90
45765;DHT22;31474;45.332;10.230;2023-07-13T07:48:11;24.20;99.90
45765;DHT22;31474;45.332;10.230;2023-07-13T07:50:38;24.10;99.90
45765;DHT22;31474;45.332;10.230;2023-07-13T07:53:05;24.20;99.90
45765;DHT22;31474;45.332;10.230;2023-07-13T07:55:33;24.10;99.90
45765;DHT22;31474;45.332;10.230;2023-07-13T07:58:00;24.00;99.90
45765;DHT22;31474;45.332;10.230;2023-07-13T08:00:26;24.00;99.90
45765;DHT22;31474;45.332;10.230;2023-07-13T08:02:53;24.00;99.90
45765;DHT22;31474;45.332;10.230;2023-07-13T08:05:19;24.00;99.90
45765;DHT22;31474;45.332;10.230;2023-07-13T08:07:44;24.00;99.90
45765;DHT22;31474;45.332;10.230;2023-07-13T08:10:10;24.00;99.90
45765;DHT22;31474;45.332;10.230;2023-07-13T08:12:37;24.00;99.90
45765;DHT22;31474;45.332;10.230;2023-07-13T08:15:04;24.00;99.90
45765;DHT22;31474;45.332;10.230;2023-07-13T08:17:30;24.00;99.90
45765;DHT22;31474;45.332;10.230;2023-07-13T08:19:56;24.00;99.90
45765;DHT22;31474;45.332;10.230;2023-07-13T08:22:21;23.90;99.90
45765;DHT22;31474;45.332;10.230;2023-07-13T08:24:47;23.90;99.90
45765;DHT22;31474;45.332;10.230;2023-07-13T08:27:20;24.00;99.90
45765;DHT22;31474;45.332;10.230;2023-07-13T08:29:47;24.00;99.90
45765;DHT22;31474;45.332;10.230;2023-07-13T08:32:13;24.00;99.90
45765;DHT22;31474;45.332;10.230;2023-07-13T08:34:39;24.20;99.90
45765;DHT22;31474;45.332;10.230;2023-07-13T08:37:06;24.20;99.90
45765;DHT22;31474;45.332;10.230;2023-07-13T08:39:32;24.30;99.90
45765;DHT22;31474;45.332;10.230;2023-07-13T08:42:37;24.40;99.90
45765;DHT22;31474;45.332;10.230;2023-07-13T08:48:03;24.50;99.90
45765;DHT22;31474;45.332;10.230;2023-07-13T08:50:34;24.40;99.90
45765;DHT22;31474;45.332;10.230;2023-07-13T08:53:02;24.40;99.90
45765;DHT22;31474;45.332;10.230;2023-07-13T08:55:34;24.40;99.90
45765;DHT22;31474;45.332;10.230;2023-07-13T08:58:12;24.50;99.90
45765;DHT22;31474;45.332;10.230;2023-07-13T09:03:23;24.80;99.90
45765;DHT22;31474;45.332;10.230;2023-07-13T09:05:56;24.90;99.90
45765;DHT22;31474;45.332;10.230;2023-07-13T09:11:10;24.90;99.90
45765;DHT22;31474;45.332;10.230;2023-07-13T09:16:13;25.00;99.90
45765;DHT22;31474;45.332;10.230;2023-07-13T09:18:44;25.00;99.90
45765;DHT22;31474;45.332;10.230;2023-07-13T09:21:17;25.00;99.90
45765;DHT22;31474;45.332;10.230;2023-07-13T09:23:44;25.30;99.90
45765;DHT22;31474;45.332;10.230;2023-07-13T09:26:13;25.40;99.90
45765;DHT22;31474;45.332;10.230;2023-07-13T09:29:45;25.40;99.90
45765;DHT22;31474;45.332;10.230;2023-07-13T09:31:54;25.50;99.90
45765;DHT22;31474;45.332;10.230;2023-07-13T09:34:20;25.50;99.90
45765;DHT22;31474;45.332;10.230;2023-07-13T09:36:46;25.60;99.90
45765;DHT22;31474;45.332;10.230;2023-07-13T09:39:40;25.50;99.90
45765;DHT22;31474;45.332;10.230;2023-07-13T09:47:29;25.30;99.90
45765;DHT22;31474;45.332;10.230;2023-07-13T09:49:58;25.30;99.90
45765;DHT22;31474;45.332;10.230;2023-07-13T09:52:24;25.30;99.90
45765;DHT22;31474;45.332;10.230;2023-07-13T09:54:53;25.30;99.90
45765;DHT22;31474;45.332;10.230;2023-07-13T09:57:25;25.30;99.90
45765;DHT22;31474;45.332;10.230;2023-07-13T09:59:52;25.30;99.90
45765;DHT22;31474;45.332;10.230;2023-07-13T10:02:35;25.30;99.90
45765;DHT22;31474;45.332;10.230;2023-07-13T10:05:06;25.30;99.90
45765;DHT22;31474;45.332;10.230;2023-07-13T10:07:39;25.30;99.90
45765;DHT22;31474;45.332;10.230;2023-07-13T10:10:14;25.20;99.90
45765;DHT22;31474;45.332;10.230;2023-07-13T10:12:40;25.10;99.90
45765;DHT22;31474;45.332;10.230;2023-07-13T10:15:14;25.00;99.90
45765;DHT22;31474;45.332;10.230;2023-07-13T10:17:41;24.90;99.90
45765;DHT22;31474;45.332;10.230;2023-07-13T10:20:07;25.00;99.90
45765;DHT22;31474;45.332;10.230;2023-07-13T10:22:59;25.00;99.90
45765;DHT22;31474;45.332;10.230;2023-07-13T10:25:29;25.10;99.90
45765;DHT22;31474;45.332;10.230;2023-07-13T10:28:27;25.10;99.90
45765;DHT22;31474;45.332;10.230;2023-07-13T10:30:52;25.20;99.90
45765;DHT22;31474;45.332;10.230;2023-07-13T10:33:19;25.20;99.90
45765;DHT22;31474;45.332;10.230;2023-07-13T10:35:46;25.20;99.90
45765;DHT22;31474;45.332;10.230;2023-07-13T10:38:18;25.20;99.90
45765;DHT22;31474;45.332;10.230;2023-07-13T10:40:56;25.30;99.90
45765;DHT22;31474;45.332;10.230;2023-07-13T10:43:33;25.40;99.90
45765;DHT22;31474;45.332;10.230;2023-07-13T10:46:04;25.50;99.90
45765;DHT22;31474;45.332;10.230;2023-07-13T10:48:31;25.70;99.90
45765;DHT22;31474;45.332;10.230;2023-07-13T10:51:00;25.80;99.90
45765;DHT22;31474;45.332;10.230;2023-07-13T10:53:31;26.10;99.90
45765;DHT22;31474;45.332;10.230;2023-07-13T10:56:01;26.40;99.90
45765;DHT22;31474;45.332;10.230;2023-07-13T10:58:37;26.60;99.90
45765;DHT22;31474;45.332;10.230;2023-07-13T11:03:55;26.90;99.90
45765;DHT22;31474;45.332;10.230;2023-07-13T11:08:58;27.00;99.90
45765;DHT22;31474;45.332;10.230;2023-07-13T11:19:37;27.60;99.90
45765;DHT22;31474;45.332;10.230;2023-07-13T11:25:00;27.40;99.90
45765;DHT22;31474;45.332;10.230;2023-07-13T11:27:43;27.50;99.90
45765;DHT22;31474;45.332;10.230;2023-07-13T11:33:20;27.60;99.90
45765;DHT22;31474;45.332;10.230;2023-07-13T11:40:54;28.10;99.90
45765;DHT22;31474;45.332;10.230;2023-07-13T11:43:21;28.00;99.90
45765;DHT22;31474;45.332;10.230;2023-07-13T11:45:50;28.20;99.90
45765;DHT22;31474;45.332;10.230;2023-07-13T11:48:26;28.20;99.90
45765;DHT22;31474;45.332;10.230;2023-07-13T11:51:03;28.30;99.90
45765;DHT22;31474;45.332;10.230;2023-07-13T11:53:39;28.40;99.90
45765;DHT22;31474;45.332;10.230;2023-07-13T11:56:06;28.30;99.90
45765;DHT22;31474;45.332;10.230;2023-07-13T11:58:32;28.30;99.90
45765;DHT22;31474;45.332;10.230;2023-07-13T12:01:00;28.30;99.90
45765;DHT22;31474;45.332;10.230;2023-07-13T12:03:30;28.20;99.90
45765;DHT22;31474;45.332;10.230;2023-07-13T12:08:27;28.10;99.90
45765;DHT22;31474;45.332;10.230;2023-07-13T12:10:58;28.00;99.90
45765;DHT22;31474;45.332;10.230;2023-07-13T12:13:27;28.00;99.90
45765;DHT22;31474;45.332;10.230;2023-07-13T12:15:53;28.10;99.90
45765;DHT22;31474;45.332;10.230;2023-07-13T12:18:23;28.30;99.90
45765;DHT22;31474;45.332;10.230;2023-07-13T12:20:50;28.30;99.90
45765;DHT22;31474;45.332;10.230;2023-07-13T12:23:25;28.40;99.90
45765;DHT22;31474;45.332;10.230;2023-07-13T12:25:52;28.60;99.90
45765;DHT22;31474;45.332;10.230;2023-07-13T12:28:22;28.60;99.90
45765;DHT22;31474;45.332;10.230;2023-07-13T12:30:49;28.60;99.90
45765;DHT22;31474;45.332;10.230;2023-07-13T12:33:16;28.50;99.90
45765;DHT22;31474;45.332;10.230;2023-07-13T12:35:51;28.60;99.90
45765;DHT22;31474;45.332;10.230;2023-07-13T12:38:18;28.80;99.90
45765;DHT22;31474;45.332;10.230;2023-07-13T12:40:49;29.00;99.90
45765;DHT22;31474;45.332;10.230;2023-07-13T12:43:16;29.00;99.90
45765;DHT22;31474;45.332;10.230;2023-07-13T12:46:16;29.10;99.90
45765;DHT22;31474;45.332;10.230;2023-07-13T12:48:42;29.00;99.90
45765;DHT22;31474;45.332;10.230;2023-07-13T12:51:12;29.10;99.90
45765;DHT22;31474;45.332;10.230;2023-07-13T12:53:41;29.00;99.90
45765;DHT22;31474;45.332;10.230;2023-07-13T12:56:18;28.80;99.90
45765;DHT22;31474;45.332;10.230;2023-07-13T12:58:45;28.90;99.90
45765;DHT22;31474;45.332;10.230;2023-07-13T13:01:14;29.00;99.90
45765;DHT22;31474;45.332;10.230;2023-07-13T13:03:48;29.00;99.90
45765;DHT22;31474;45.332;10.230;2023-07-13T13:08:46;29.20;99.90
45765;DHT22;31474;45.332;10.230;2023-07-13T13:11:11;29.20;99.90
45765;DHT22;31474;45.332;10.230;2023-07-13T13:13:42;29.30;99.90
45765;DHT22;31474;45.332;10.230;2023-07-13T13:18:41;29.60;99.90
45765;DHT22;31474;45.332;10.230;2023-07-13T13:21:06;29.60;99.90
45765;DHT22;31474;45.332;10.230;2023-07-13T13:23:32;29.70;99.90
45765;DHT22;31474;45.332;10.230;2023-07-13T13:25:58;29.70;99.90
45765;DHT22;31474;45.332;10.230;2023-07-13T13:28:24;29.80;99.90
45765;DHT22;31474;45.332;10.230;2023-07-13T13:30:50;29.80;99.90
45765;DHT22;31474;45.332;10.230;2023-07-13T13:33:18;29.80;99.90
45765;DHT22;31474;45.332;10.230;2023-07-13T13:35:44;29.90;99.90
45765;DHT22;31474;45.332;10.230;2023-07-13T13:38:19;29.80;99.90
45765;DHT22;31474;45.332;10.230;2023-07-13T13:40:46;29.70;99.90
45765;DHT22;31474;45.332;10.230;2023-07-13T13:43:21;29.70;99.90
45765;DHT22;31474;45.332;10.230;2023-07-13T13:45:47;29.90;99.90
45765;DHT22;31474;45.332;10.230;2023-07-13T13:48:18;30.00;99.90
45765;DHT22;31474;45.332;10.230;2023-07-13T13:50:44;30.00;99.90
45765;DHT22;31474;45.332;10.230;2023-07-13T13:53:11;30.10;99.90
45765;DHT22;31474;45.332;10.230;2023-07-13T13:55:38;30.00;99.90
45765;DHT22;31474;45.332;10.230;2023-07-13T13:58:04;30.00;99.90
45765;DHT22;31474;45.332;10.230;2023-07-13T14:00:30;30.00;99.90
45765;DHT22;31474;45.332;10.230;2023-07-13T14:02:55;30.00;99.90
45765;DHT22;31474;45.332;10.230;2023-07-13T14:05:24;30.10;99.90
45765;DHT22;31474;45.332;10.230;2023-07-13T14:07:54;30.20;99.90
45765;DHT22;31474;45.332;10.230;2023-07-13T14:10:21;30.30;99.90
45765;DHT22;31474;45.332;10.230;2023-07-13T14:12:56;30.30;99.90
45765;DHT22;31474;45.332;10.230;2023-07-13T14:15:29;30.30;99.90
45765;DHT22;31474;45.332;10.230;2023-07-13T14:17:59;30.20;99.90
45765;DHT22;31474;45.332;10.230;2023-07-13T14:20:25;30.20;99.90
45765;DHT22;31474;45.332;10.230;2023-07-13T14:22:54;30.20;99.70
45765;DHT22;31474;45.332;10.230;2023-07-13T14:25:21;30.30;99.90
45765;DHT22;31474;45.332;10.230;2023-07-13T14:27:51;30.30;99.90
45765;DHT22;31474;45.332;10.230;2023-07-13T14:30:21;30.30;99.90
45765;DHT22;31474;45.332;10.230;2023-07-13T14:32:47;30.30;99.90
45765;DHT22;31474;45.332;10.230;2023-07-13T14:35:16;30.40;99.70
45765;DHT22;31474;45.332;10.230;2023-07-13T14:37:43;30.40;99.70
45765;DHT22;31474;45.332;10.230;2023-07-13T14:40:17;30.30;99.90
45765;DHT22;31474;45.332;10.230;2023-07-13T14:42:44;30.40;99.20
45765;DHT22;31474;45.332;10.230;2023-07-13T14:45:18;30.40;99.60
45765;DHT22;31474;45.332;10.230;2023-07-13T14:47:44;30.40;99.40
45765;DHT22;31474;45.332;10.230;2023-07-13T14:50:24;30.40;99.10
45765;DHT22;31474;45.332;10.230;2023-07-13T14:52:52;30.40;98.30
45765;DHT22;31474;45.332;10.230;2023-07-13T14:55:18;30.40;99.90
45765;DHT22;31474;45.332;10.230;2023-07-13T14:57:44;30.40;99.70
45765;DHT22;31474;45.332;10.230;2023-07-13T15:00:20;30.40;99.80
45765;DHT22;31474;45.332;10.230;2023-07-13T15:02:55;30.40;99.50
45765;DHT22;31474;45.332;10.230;2023-07-13T15:05:24;30.40;98.70
45765;DHT22;31474;45.332;10.230;2023-07-13T15:07:51;30.30;99.00
45765;DHT22;31474;45.332;10.230;2023-07-13T15:10:24;30.30;99.60
45765;DHT22;31474;45.332;10.230;2023-07-13T15:12:56;30.30;98.90
45765;DHT22;31474;45.332;10.230;2023-07-13T15:15:23;30.30;99.00
45765;DHT22;31474;45.332;10.230;2023-07-13T15:17:48;30.30;99.40
45765;DHT22;31474;45.332;10.230;2023-07-13T15:20:31;30.30;99.30
45765;DHT22;31474;45.332;10.230;2023-07-13T15:22:57;30.30;98.60
45765;DHT22;31474;45.332;10.230;2023-07-13T15:25:26;30.30;99.20
45765;DHT22;31474;45.332;10.230;2023-07-13T15:27:53;30.30;98.50
45765;DHT22;31474;45.332;10.230;2023-07-13T15:30:20;30.30;98.80
45765;DHT22;31474;45.332;10.230;2023-07-13T15:32:46;30.30;99.00
45765;DHT22;31474;45.332;10.230;2023-07-13T15:35:21;30.20;98.60
45765;DHT22;31474;45.332;10.230;2023-07-13T15:37:48;30.20;98.50
45765;DHT22;31474;45.332;10.230;2023-07-13T15:40:14;30.10;98.90
45765;DHT22;31474;45.332;10.230;2023-07-13T15:42:41;30.20;98.60
45765;DHT22;31474;45.332;10.230;2023-07-13T15:45:19;30.10;99.10
45765;DHT22;31474;45.332;10.230;2023-07-13T15:47:46;30.20;98.70
45765;DHT22;31474;45.332;10.230;2023-07-13T15:50:13;30.20;99.20
45765;DHT22;31474;45.332;10.230;2023-07-13T15:52:40;30.10;98.00
45765;DHT22;31474;45.332;10.230;2023-07-13T15:55:10;29.80;99.10
45765;DHT22;31474;45.332;10.230;2023-07-13T15:57:37;29.40;99.10
45765;DHT22;31474;45.332;10.230;2023-07-13T16:00:03;29.30;99.20
45765;DHT22;31474;45.332;10.230;2023-07-13T16:02:31;29.10;99.20
45765;DHT22;31474;45.332;10.230;2023-07-13T16:04:56;28.90;99.30
45765;DHT22;31474;45.332;10.230;2023-07-13T16:07:22;28.70;99.40
45765;DHT22;31474;45.332;10.230;2023-07-13T16:09:48;28.60;99.40
45765;DHT22;31474;45.332;10.230;2023-07-13T16:12:15;28.60;99.60